createdAt,value
2018-03-19T00:02:04.872Z,93910
2018-03-19T00:04:34.918Z,93909
2018-03-19T00:07:04.909Z,93903
2018-03-19T00:09:35.717Z,93906
2018-03-19T00:12:06.509Z,93908
2018-03-19T00:14:36.524Z,93904
2018-03-19T00:17:06.539Z,93903
2018-03-19T00:19:36.537Z,93902
2018-03-19T00:22:07.332Z,93901
2018-03-19T00:24:37.400Z,93902
2018-03-19T00:27:07.417Z,93901
2018-03-19T00:29:38.151Z,93902
2018-03-19T00:32:08.119Z,93904
2018-03-19T00:34:38.920Z,93909
2018-03-19T00:37:08.900Z,93906
2018-03-19T00:39:39.660Z,93909
2018-03-19T00:42:09.680Z,93911
2018-03-19T00:44:39.690Z,93915
2018-03-19T00:47:09.653Z,93910
2018-03-19T00:49:39.630Z,93910
2018-03-19T00:52:09.621Z,93913
2018-03-19T00:54:39.600Z,93910
2018-03-19T00:57:10.405Z,93917
2018-03-19T00:59:41.179Z,93917
2018-03-19T01:02:11.117Z,93924
2018-03-19T01:04:41.098Z,93921
2018-03-19T01:07:11.089Z,93926
2018-03-19T01:09:41.072Z,93922
2018-03-19T01:12:11.078Z,93922
2018-03-19T01:14:41.844Z,93925
2018-03-19T01:17:11.824Z,93921
2018-03-19T01:19:42.553Z,93920
2018-03-19T01:22:13.303Z,93919
2018-03-19T01:24:43.297Z,93920
2018-03-19T01:27:13.251Z,93919
2018-03-19T01:29:43.239Z,93922
2018-03-19T01:32:13.998Z,93926
2018-03-19T01:34:43.997Z,93918
2018-03-19T01:37:14.695Z,93915
2018-03-19T01:39:45.509Z,93909
2018-03-19T01:42:16.307Z,93917
2018-03-19T01:44:46.292Z,93917
2018-03-19T01:47:17.087Z,93913
2018-03-19T01:49:47.084Z,93909
2018-03-19T01:52:17.981Z,93912
2018-03-19T01:54:48.018Z,93911
2018-03-19T01:57:18.790Z,93913
2018-03-19T01:59:48.798Z,93910
2018-03-19T02:02:18.780Z,93911
2018-03-19T02:04:49.570Z,93908
2018-03-19T02:07:19.594Z,93912
2018-03-19T02:09:49.572Z,93904
2018-03-19T02:12:19.956Z,93906
2018-03-19T02:14:50.718Z,93909
2018-03-19T02:17:21.461Z,93910
2018-03-19T02:19:52.632Z,93910
2018-03-19T02:22:22.633Z,93900
2018-03-19T02:24:52.602Z,93901
2018-03-19T02:27:23.334Z,93901
2018-03-19T02:29:54.100Z,93898
2018-03-19T02:32:24.817Z,93901
2018-03-19T02:34:55.579Z,93903
2018-03-19T02:37:25.559Z,93896
2018-03-19T02:39:56.322Z,93901
2018-03-19T02:42:26.359Z,93903
2018-03-19T02:44:56.370Z,93904
2018-03-19T02:47:26.310Z,93896
2018-03-19T02:49:56.294Z,93900
2018-03-19T02:52:26.249Z,93903
2018-03-19T02:54:57.131Z,93906
2018-03-19T02:57:27.099Z,93915
2018-03-19T02:59:57.026Z,93917
2018-03-19T03:02:26.905Z,93914
2018-03-19T03:04:56.829Z,93915
2018-03-19T03:07:26.730Z,93913
2018-03-19T03:09:56.574Z,93919
2018-03-19T03:12:26.433Z,93921
2018-03-19T03:14:57.114Z,93923
2018-03-19T03:17:26.973Z,93923
2018-03-19T03:19:56.846Z,93924
2018-03-19T03:22:27.537Z,93926
2018-03-19T03:24:57.434Z,93914
2018-03-19T03:27:28.105Z,93921
2018-03-19T03:29:58.025Z,93921
2018-03-19T03:32:27.970Z,93922
2018-03-19T03:34:58.673Z,93925
2018-03-19T03:37:28.573Z,93923
2018-03-19T03:39:58.498Z,93924
2018-03-19T03:42:28.381Z,93920
2018-03-19T03:44:59.009Z,93920
2018-03-19T03:47:29.625Z,93923
2018-03-19T03:50:00.266Z,93923
2018-03-19T03:52:30.881Z,93918
2018-03-19T03:55:01.520Z,93916
2018-03-19T03:57:32.186Z,93925
2018-03-19T04:00:02.054Z,93923
2018-03-19T04:02:31.955Z,93927
2018-03-19T04:05:01.806Z,93926
2018-03-19T04:07:32.465Z,93925
2018-03-19T04:10:02.321Z,93919
2018-03-19T04:12:32.981Z,93920
2018-03-19T04:15:02.845Z,93921
2018-03-19T04:17:32.754Z,93928
2018-03-19T04:20:02.653Z,93930
2018-03-19T04:22:32.553Z,93919
2018-03-19T04:25:02.443Z,93927
2018-03-19T04:27:33.093Z,93921
2018-03-19T04:30:02.970Z,93922
2018-03-19T04:32:33.625Z,93920
2018-03-19T04:35:04.334Z,93912
2018-03-19T04:37:34.997Z,93906
2018-03-19T04:40:05.635Z,93910
2018-03-19T04:42:35.614Z,93906
2018-03-19T04:45:06.253Z,93907
2018-03-19T04:47:36.916Z,93910
2018-03-19T04:50:06.793Z,93916
2018-03-19T04:52:37.497Z,93917
2018-03-19T04:55:08.224Z,93914
2018-03-19T04:57:38.117Z,93921
2018-03-19T05:00:07.994Z,93916
2018-03-19T05:02:37.907Z,93919
2018-03-19T05:05:08.580Z,93917
2018-03-19T05:07:38.433Z,93913
2018-03-19T05:10:08.414Z,93915
2018-03-19T05:12:38.314Z,93914
2018-03-19T05:15:08.201Z,93914
2018-03-19T05:17:38.908Z,93918
2018-03-19T05:20:09.607Z,93917
2018-03-19T05:22:39.466Z,93926
2018-03-19T05:25:10.133Z,93921
2018-03-19T05:27:40.854Z,93923
2018-03-19T05:30:11.636Z,93929
2018-03-19T05:32:41.554Z,93931
2018-03-19T05:35:11.457Z,93929
2018-03-19T05:37:41.370Z,93932
2018-03-19T05:40:11.227Z,93934
2018-03-19T05:42:41.138Z,93933
2018-03-19T05:45:11.786Z,93934
2018-03-19T05:47:42.426Z,93943
2018-03-19T05:50:12.315Z,93943
2018-03-19T05:52:42.969Z,93943
2018-03-19T05:55:12.890Z,93949
2018-03-19T05:57:42.745Z,93951
2018-03-19T06:00:12.682Z,93954
2018-03-19T06:02:43.405Z,93956
2018-03-19T06:05:13.273Z,93955
2018-03-19T06:07:43.133Z,93960
2018-03-19T06:10:13.863Z,93962
2018-03-19T06:12:43.737Z,93959
2018-03-19T06:15:13.619Z,93964
2018-03-19T06:17:43.512Z,93964
2018-03-19T06:20:14.257Z,93968
2018-03-19T06:22:45.036Z,93974
2018-03-19T06:25:14.973Z,93976
2018-03-19T06:27:44.834Z,93985
2018-03-19T06:30:14.734Z,93985
2018-03-19T06:32:44.699Z,93988
2018-03-19T06:35:14.554Z,93987
2018-03-19T06:37:45.214Z,93982
2018-03-19T06:40:15.087Z,93976
2018-03-19T06:42:44.974Z,93992
2018-03-19T06:45:15.822Z,93994
2018-03-19T06:47:45.717Z,94002
2018-03-19T06:50:15.587Z,94008
2018-03-19T06:52:46.504Z,94014
2018-03-19T06:55:17.139Z,94010
2018-03-19T06:57:47.068Z,94011
2018-03-19T07:00:17.717Z,94017
2018-03-19T07:02:47.570Z,94015
2018-03-19T07:05:17.447Z,94016
2018-03-19T07:07:47.357Z,94017
2018-03-19T07:10:17.209Z,94009
2018-03-19T07:12:47.096Z,94016
2018-03-19T07:15:17.013Z,94020
2018-03-19T07:17:46.932Z,94020
2018-03-19T07:20:16.891Z,94015
2018-03-19T07:22:47.617Z,94019
2018-03-19T07:25:17.526Z,94017
2018-03-19T07:27:47.446Z,94019
2018-03-19T07:30:18.166Z,94017
2018-03-19T07:32:48.069Z,94025
2018-03-19T07:35:17.982Z,94031
2018-03-19T07:37:47.945Z,94030
2018-03-19T07:40:18.654Z,94039
2018-03-19T07:42:49.309Z,94035
2018-03-19T07:45:19.916Z,94035
2018-03-19T07:47:49.770Z,94035
2018-03-19T07:50:20.382Z,94031
2018-03-19T07:52:51.025Z,94032
2018-03-19T07:55:21.675Z,94032
2018-03-19T07:57:52.269Z,94037
2018-03-19T08:00:22.924Z,94043
2018-03-19T08:02:53.525Z,94042
2018-03-19T08:05:24.162Z,94035
2018-03-19T08:07:54.812Z,94040
2018-03-19T08:10:25.428Z,94039
2018-03-19T08:12:56.058Z,94036
2018-03-19T08:15:26.702Z,94041
2018-03-19T08:17:56.575Z,94033
2018-03-19T08:20:26.414Z,94035
2018-03-19T08:22:56.337Z,94036
2018-03-19T08:25:26.948Z,94041
2018-03-19T08:27:57.619Z,94040
2018-03-19T08:30:27.520Z,94044
2018-03-19T08:32:58.155Z,94043
2018-03-19T08:35:28.793Z,94041
2018-03-19T08:37:59.734Z,94045
2018-03-19T08:40:30.376Z,94039
2018-03-19T08:43:01.014Z,94043
2018-03-19T08:45:30.851Z,94037
2018-03-19T08:48:00.747Z,94037
2018-03-19T08:50:30.581Z,94034
2018-03-19T08:53:00.420Z,94038
2018-03-19T08:55:30.289Z,94036
2018-03-19T08:58:00.149Z,94037
2018-03-19T09:00:30.808Z,94036
2018-03-19T09:03:00.669Z,94034
2018-03-19T09:05:30.507Z,94038
2018-03-19T09:08:01.154Z,94038
2018-03-19T09:10:31.921Z,94040
2018-03-19T09:13:01.787Z,94041
2018-03-19T09:15:31.609Z,94034
2018-03-19T09:18:02.380Z,94045
2018-03-19T09:20:32.277Z,94044
2018-03-19T09:23:03.305Z,94042
2018-03-19T09:25:33.222Z,94044
2018-03-19T09:28:03.854Z,94038
2018-03-19T09:30:33.712Z,94043
2018-03-19T09:33:03.587Z,94040
2018-03-19T09:35:33.469Z,94043
2018-03-19T09:38:04.179Z,94051
2018-03-19T09:40:34.108Z,94048
2018-03-19T09:43:04.028Z,94054
2018-03-19T09:45:34.685Z,94047
2018-03-19T09:48:04.587Z,94054
2018-03-19T09:50:35.290Z,94058
2018-03-19T09:53:05.182Z,94053
2018-03-19T09:55:35.071Z,94054
2018-03-19T09:58:04.966Z,94054
2018-03-19T10:00:34.838Z,94053
2018-03-19T10:03:04.721Z,94054
2018-03-19T10:05:34.647Z,94061
2018-03-19T10:08:05.373Z,94057
2018-03-19T10:10:35.277Z,94059
2018-03-19T10:13:05.426Z,94065
2018-03-19T10:15:35.326Z,94063
2018-03-19T10:18:07.322Z,94062
2018-03-19T10:20:37.421Z,94060
2018-03-19T10:23:08.157Z,94064
2018-03-19T10:25:38.040Z,94061
2018-03-19T10:28:07.906Z,94058
2018-03-19T10:30:38.606Z,94059
2018-03-19T10:33:08.506Z,94058
2018-03-19T10:35:38.386Z,94058
2018-03-19T10:38:08.274Z,94060
2018-03-19T10:40:39.067Z,94058
2018-03-19T10:43:08.986Z,94053
2018-03-19T10:45:38.880Z,94055
2018-03-19T10:48:08.797Z,94061
2018-03-19T10:50:38.670Z,94049
2018-03-19T10:53:09.333Z,94055
2018-03-19T10:55:39.809Z,94053
2018-03-19T10:58:09.690Z,94053
2018-03-19T11:00:39.675Z,94054
2018-03-19T11:03:10.427Z,94050
2018-03-19T11:05:45.786Z,94053
2018-03-19T11:11:16.954Z,94050
2018-03-19T11:13:48.401Z,94050
2018-03-19T11:16:18.267Z,94048
2018-03-19T11:18:48.933Z,94050
2018-03-19T11:21:18.805Z,94051
2018-03-19T11:23:49.457Z,94043
2018-03-19T11:26:20.086Z,94045
2018-03-19T11:28:50.014Z,94047
2018-03-19T11:31:20.787Z,94047
2018-03-19T11:33:50.646Z,94044
2018-03-19T11:36:21.240Z,94043
2018-03-19T11:38:51.109Z,94040
2018-03-19T11:41:22.274Z,94043
2018-03-19T11:43:52.229Z,94039
2018-03-19T11:46:22.874Z,94044
2018-03-19T11:48:52.686Z,94039
2018-03-19T11:51:24.258Z,94039
2018-03-19T11:53:54.134Z,94038
2018-03-19T11:56:24.755Z,94042
2018-03-19T11:58:54.596Z,94036
2018-03-19T12:01:25.239Z,94034
2018-03-19T12:03:55.909Z,94035
2018-03-19T12:06:25.772Z,94031
2018-03-19T12:08:56.379Z,94035
2018-03-19T12:11:27.014Z,94027
2018-03-19T12:13:56.950Z,94030
2018-03-19T12:16:26.835Z,94023
2018-03-19T12:18:56.712Z,94025
2018-03-19T12:21:26.554Z,94020
2018-03-19T12:23:57.236Z,94018
2018-03-19T12:26:27.918Z,94020
2018-03-19T12:28:57.795Z,94013
2018-03-19T12:31:28.402Z,94019
2018-03-19T12:33:59.007Z,94016
2018-03-19T12:36:28.944Z,94020
2018-03-19T12:38:58.896Z,94010
2018-03-19T12:41:28.726Z,94009
2018-03-19T12:43:58.661Z,94003
2018-03-19T12:46:28.520Z,94010
2018-03-19T12:48:59.374Z,94013
2018-03-19T12:51:31.114Z,94005
2018-03-19T12:54:01.900Z,94006
2018-03-19T12:56:31.793Z,94005
2018-03-19T12:59:02.794Z,94003
2018-03-19T13:01:32.636Z,94007
2018-03-19T13:04:02.500Z,94006
2018-03-19T13:06:33.170Z,94010
2018-03-19T13:09:03.154Z,94013
2018-03-19T13:11:33.057Z,94015
2018-03-19T13:14:03.694Z,94020
2018-03-19T13:16:34.305Z,94012
2018-03-19T13:19:04.266Z,94013
2018-03-19T13:21:35.081Z,94017
2018-03-19T13:24:05.725Z,94007
2018-03-19T13:26:36.324Z,94011
2018-03-19T13:29:06.194Z,94015
2018-03-19T13:31:36.079Z,94014
2018-03-19T13:34:06.718Z,94019
2018-03-19T13:36:37.381Z,94016
2018-03-19T13:39:07.252Z,94007
2018-03-19T13:41:37.188Z,94016
2018-03-19T13:44:07.072Z,94019
2018-03-19T13:46:37.744Z,94023
2018-03-19T13:49:08.653Z,94035
2018-03-19T13:51:39.294Z,94031
2018-03-19T13:54:09.195Z,94037
2018-03-19T13:56:39.838Z,94039
2018-03-19T13:59:10.486Z,94036
2018-03-19T14:01:40.401Z,94039
2018-03-19T14:04:10.297Z,94035
2018-03-19T14:06:40.217Z,94028
2018-03-19T14:09:10.089Z,94030
2018-03-19T14:11:40.835Z,94033
2018-03-19T14:14:11.506Z,94039
2018-03-19T14:16:41.393Z,94037
2018-03-19T14:19:12.074Z,94040
2018-03-19T14:21:41.929Z,94039
2018-03-19T14:24:11.792Z,94042
2018-03-19T14:26:41.625Z,94049
2018-03-19T14:29:11.495Z,94046
2018-03-19T14:31:41.388Z,94044
2018-03-19T14:34:11.388Z,94047
2018-03-19T14:36:42.043Z,94049
2018-03-19T14:39:12.700Z,94046
2018-03-19T14:41:42.630Z,94045
2018-03-19T14:44:12.471Z,94046
2018-03-19T14:46:43.142Z,94049
2018-03-19T14:49:13.055Z,94052
2018-03-19T14:51:42.891Z,94051
2018-03-19T14:54:12.754Z,94050
2018-03-19T14:56:43.510Z,94051
2018-03-19T14:59:14.157Z,94053
2018-03-19T15:01:45.061Z,94056
2018-03-19T15:04:15.723Z,94054
2018-03-19T15:06:46.618Z,94052
2018-03-19T15:09:17.277Z,94055
2018-03-19T15:11:47.884Z,94062
2018-03-19T15:14:17.756Z,94059
2018-03-19T15:16:47.695Z,94061
2018-03-19T15:19:17.585Z,94063
2018-03-19T15:21:47.575Z,94070
2018-03-19T15:24:18.183Z,94071
2018-03-19T15:26:48.913Z,94065
2018-03-19T15:29:19.574Z,94074
2018-03-19T15:31:49.438Z,94079
2018-03-19T15:34:20.093Z,94076
2018-03-19T15:36:50.773Z,94087
2018-03-19T15:39:20.717Z,94083
2018-03-19T15:41:51.374Z,94075
2018-03-19T15:44:21.275Z,94084
2018-03-19T15:46:51.896Z,94085
2018-03-19T15:49:22.626Z,94089
2018-03-19T15:51:54.085Z,94093
2018-03-19T15:54:24.742Z,94092
2018-03-19T15:56:54.589Z,94092
2018-03-19T15:59:24.482Z,94090
2018-03-19T16:01:54.373Z,94094
2018-03-19T16:04:24.323Z,94096
2018-03-19T16:06:54.246Z,94105
2018-03-19T16:09:24.140Z,94104
2018-03-19T16:11:54.030Z,94103
2018-03-19T16:14:24.644Z,94109
2018-03-19T16:16:55.313Z,94110
2018-03-19T16:19:25.240Z,94109
2018-03-19T16:21:55.105Z,94114
2018-03-19T16:24:25.782Z,94118
2018-03-19T16:26:55.608Z,94120
2018-03-19T16:29:25.524Z,94123
2018-03-19T16:31:55.393Z,94123
2018-03-19T16:34:26.036Z,94126
2018-03-19T16:36:56.974Z,94133
2018-03-19T16:39:27.716Z,94135
2018-03-19T16:41:57.841Z,94138
2018-03-19T16:44:27.803Z,94131
2018-03-19T16:46:57.662Z,94139
2018-03-19T16:49:27.516Z,94138
2018-03-19T16:51:57.397Z,94143
2018-03-19T16:54:27.355Z,94144
2018-03-19T16:56:57.286Z,94145
2018-03-19T16:59:27.962Z,94151
2018-03-19T17:01:57.840Z,94149
2018-03-19T17:04:27.762Z,94147
2018-03-19T17:06:58.453Z,94153
2018-03-19T17:09:28.361Z,94152
2018-03-19T17:11:58.779Z,94158
2018-03-19T17:14:28.641Z,94161
2018-03-19T17:16:59.290Z,94155
2018-03-19T17:19:29.946Z,94157
2018-03-19T17:21:59.889Z,94167
2018-03-19T17:24:30.535Z,94164
2018-03-19T17:27:00.421Z,94169
2018-03-19T17:29:30.330Z,94173
2018-03-19T17:32:00.242Z,94179
2018-03-19T17:34:30.112Z,94175
2018-03-19T17:37:00.765Z,94178
2018-03-19T17:39:31.559Z,94181
2018-03-19T17:42:01.528Z,94179
2018-03-19T17:44:31.434Z,94185
2018-03-19T17:47:01.357Z,94192
2018-03-19T17:49:31.596Z,94193
2018-03-19T17:52:01.518Z,94196
2018-03-19T17:54:31.374Z,94197
2018-03-19T17:57:02.021Z,94200
2018-03-19T17:59:31.945Z,94201
2018-03-19T18:02:01.870Z,94211
2018-03-19T18:04:32.675Z,94216
2018-03-19T18:07:03.345Z,94219
2018-03-19T18:09:34.094Z,94228
2018-03-19T18:12:04.227Z,94233
2018-03-19T18:14:34.046Z,94235
2018-03-19T18:17:04.735Z,94244
2018-03-19T18:19:34.596Z,94244
2018-03-19T18:22:04.572Z,94247
2018-03-19T18:24:34.474Z,94248
2018-03-19T18:27:04.927Z,94247
2018-03-19T18:29:35.620Z,94255
2018-03-19T18:32:05.522Z,94258
2018-03-19T18:34:35.494Z,94266
2018-03-19T18:37:05.462Z,94263
2018-03-19T18:39:36.086Z,94265
2018-03-19T18:42:06.765Z,94262
2018-03-19T18:44:36.628Z,94264
2018-03-19T18:47:07.369Z,94270
2018-03-19T18:49:37.325Z,94267
2018-03-19T18:52:07.234Z,94276
2018-03-19T18:54:37.168Z,94281
2018-03-19T18:57:07.078Z,94274
2018-03-19T18:59:37.839Z,94286
2018-03-19T19:02:08.565Z,94287
2018-03-19T19:04:39.209Z,94292
2018-03-19T19:07:09.862Z,94288
2018-03-19T19:09:39.742Z,94293
2018-03-19T19:12:10.548Z,94294
2018-03-19T19:14:40.506Z,94298
2018-03-19T19:17:11.444Z,94300
2018-03-19T19:19:41.397Z,94302
2018-03-19T19:22:11.293Z,94305
2018-03-19T19:24:41.197Z,94305
2018-03-19T19:27:11.842Z,94310
2018-03-19T19:29:41.742Z,94309
2018-03-19T19:32:12.417Z,94310
2018-03-19T19:34:42.338Z,94313
2018-03-19T19:37:12.212Z,94307
2018-03-19T19:39:42.150Z,94313
2018-03-19T19:42:12.934Z,94315
2018-03-19T19:44:43.616Z,94309
2018-03-19T19:47:13.515Z,94316
2018-03-19T19:49:43.416Z,94317
2018-03-19T19:52:14.047Z,94311
2018-03-19T19:54:43.953Z,94314
2018-03-19T19:57:14.657Z,94319
2018-03-19T19:59:44.545Z,94318
2018-03-19T20:02:14.474Z,94322
2018-03-19T20:04:44.354Z,94312
2018-03-19T20:07:14.227Z,94319
2018-03-19T20:09:44.928Z,94323
2018-03-19T20:12:15.638Z,94319
2018-03-19T20:14:45.549Z,94321
2018-03-19T20:17:15.400Z,94311
2018-03-19T20:19:45.295Z,94316
2018-03-19T20:22:15.219Z,94312
2018-03-19T20:24:45.147Z,94324
2018-03-19T20:27:15.864Z,94321
2018-03-19T20:29:46.523Z,94328
2018-03-19T20:32:18.121Z,94326
2018-03-19T20:34:48.045Z,94318
2018-03-19T20:37:17.984Z,94324
2018-03-19T20:39:48.021Z,94319
2018-03-19T20:42:18.697Z,94323
2018-03-19T20:44:48.575Z,94323
2018-03-19T20:47:19.254Z,94324
2018-03-19T20:49:51.110Z,94323
2018-03-19T20:52:21.842Z,94327
2018-03-19T20:54:51.774Z,94329
2018-03-19T20:57:21.654Z,94326
2018-03-19T20:59:52.317Z,94324
2018-03-19T21:02:22.254Z,94324
2018-03-19T21:04:52.959Z,94327
2018-03-19T21:07:22.874Z,94324
2018-03-19T21:09:53.586Z,94329
2018-03-19T21:12:23.455Z,94331
2018-03-19T21:14:54.144Z,94329
2018-03-19T21:17:24.038Z,94328
2018-03-19T21:19:53.947Z,94332
2018-03-19T21:22:23.819Z,94328
2018-03-19T21:24:54.494Z,94331
2018-03-19T21:27:24.366Z,94321
2018-03-19T21:29:54.646Z,94323
2018-03-19T21:32:24.562Z,94323
2018-03-19T21:34:55.279Z,94322
2018-03-19T21:37:25.166Z,94325
2018-03-19T21:39:55.856Z,94329
2018-03-19T21:42:25.756Z,94330
2018-03-19T21:44:55.658Z,94328
2018-03-19T21:47:25.545Z,94329
2018-03-19T21:49:56.202Z,94330
2018-03-19T21:52:26.076Z,94336
2018-03-19T21:54:56.766Z,94338
2018-03-19T21:57:26.694Z,94334
2018-03-19T21:59:56.578Z,94339
2018-03-19T22:02:26.458Z,94336
2018-03-19T22:04:57.144Z,94342
2018-03-19T22:07:27.034Z,94344
2018-03-19T22:09:56.933Z,94345
2018-03-19T22:12:27.581Z,94343
2018-03-19T22:14:57.474Z,94348
2018-03-19T22:17:28.114Z,94340
2018-03-19T22:19:59.086Z,94342
2018-03-19T22:22:29.174Z,94343
2018-03-19T22:24:59.800Z,94349
2018-03-19T22:27:29.670Z,94344
2018-03-19T22:29:59.555Z,94344
2018-03-19T22:32:29.454Z,94350
2018-03-19T22:34:59.340Z,94348
2018-03-19T22:37:29.238Z,94339
2018-03-19T22:39:59.942Z,94342
2018-03-19T22:42:30.689Z,94339
2018-03-19T22:45:01.392Z,94341
2018-03-19T22:47:31.294Z,94345
2018-03-19T22:50:01.166Z,94345
2018-03-19T22:52:31.094Z,94346
2018-03-19T22:55:01.750Z,94343
2018-03-19T22:57:31.716Z,94342
2018-03-19T23:00:01.594Z,94347
2018-03-19T23:02:31.523Z,94347
2018-03-19T23:08:06.677Z,94350
2018-03-19T23:10:42.053Z,94347
2018-03-19T23:13:17.382Z,94337
2018-03-19T23:15:48.790Z,94346
2018-03-19T23:18:18.665Z,94341
2018-03-19T23:20:49.354Z,94344
2018-03-19T23:23:19.253Z,94345
2018-03-19T23:25:49.137Z,94351
2018-03-19T23:28:19.794Z,94353
2018-03-19T23:30:49.725Z,94355
2018-03-19T23:33:19.633Z,94354
2018-03-19T23:35:49.484Z,94359
2018-03-19T23:38:20.522Z,94352
2018-03-19T23:40:50.382Z,94349
2018-03-19T23:43:20.273Z,94346
2018-03-19T23:45:50.925Z,94348
2018-03-19T23:48:20.833Z,94354
2018-03-19T23:50:50.694Z,94349
2018-03-19T23:53:20.562Z,94351
2018-03-19T23:55:51.214Z,94353
2018-03-19T23:58:21.125Z,94357
